Kuandian, China
Current Conditions -  °F | °C
As of 9:30 AM on Sunday 26 Oct 2014 (Local Time) from ZYTX Reporting Station
Clear Clear  
Wind Chill: 40°   Ceiling: Unl
Heat Index: 46°   Visibility: 6mi
Dew Point:   Wind: 13mph
Humidity: 20%   Direction: 330°NNW
Pressure: 30.27"   Gusts: NA
Location:  40.73°N, 124.78°E
Report Text: ZYTX 260130Z 33006MPS 300V360 CAVOK 08/M14 Q1025 NOSIG
Loading
Personal Weather Stations






























Interactive Weather Map
Tropical Storm Tracking
New forecast layout! Learn more

10-Day Weather Forecast

Advertisements
Track Severe Weather on mobile